Search for airport 
image banner adimage banner adimage banner ad
image banner ad

53CN - Thayer Aviation

Located in Grimes, United States

ICAO - 53CN, IATA -

Data provided by Airmate  

General information

Coordinates: N39°4'30" W121°55'4"
Elevation is 54 feet MSL.
Magnetic variation is 16° East
View others Airports in California

Operational data

Special qualification required
Current time UTC:
Current local time:
Weather at : KMYV - Yuba County ( 30 km )
METAR: KMYV 211253Z AUTO 16008KT 10SM CLR 18/09 A2982 RMK AO2 SLP099 T01780094
View NOTAMs / SUP AIP / TFR affecting this airport [VIEW]
Communications frequencies: [VIEW]

Runways:

RWY identifierQFULength (ft)Width (ft)SurfaceLDA (ft)
NW180060ASPH
SE180060ASPH

Airport contact information

Address: Grimes United States

Satellite view of 53CN